To NAV CANADA Home Page Login to a new session Search on AWWS site Feedback and Comments Disclaimer Vers la page française équivalente Tips FAQ What's new on the site To the Forecasts and Observations / NOTAM section To "File a Flight Plan" website Publications and other links Update of the User's profile FIC Telephone Numbers My Weather Data Folder Route Weather Data Regional Weather Data Local Weather Data To the Forecasts and Observations / NOTAM section
Request Generated 02/24/2017 at 03:38:47 UTC . Weather information available at that time is displayed.

METAR/TAF

DEASE LAKE/BC    (show WxCam)

METAR CYDL 240300Z AUTO 00000KT 9SM CLR M09/M14 A3024 RMK SLP295=
METAR CYDL 240200Z AUTO 28003KT 230V340 9SM CLR M07/M14 A3022 RMK
SLP283=
METAR CYDL 240100Z AUTO VRB03KT 9SM CLR M03/M14 A3021 RMK SLP275=

*** REMARK        : Forecast period has ended; this was the last TAF issued
*** REMARQUE : La période de prévision est échue; ceci était le dernier TAF qui a été émis
TAF CYDL 232341Z 2400/2403 25005KT P6SM FEW050 SCT080
RMK FCST BASED ON AUTO OBS. NXT FCST WILL BE ISSUED AT 241645Z=
Your time UTC time
Weather data provided by Environment Canada and NAV CANADA